sensor_id;sensor_type;location;lat;lon;timestamp;pressure;altitude;pressure_sealevel;temperature;humidity
58739;BME280;44512;53.046;18.604;2023-02-15T00:04:22;103448.48;;;2.88;62.46
58739;BME280;44512;53.046;18.604;2023-02-15T00:14:48;103441.39;;;2.87;63.20
58739;BME280;44512;53.046;18.604;2023-02-15T00:25:17;103430.70;;;2.87;63.88
58739;BME280;44512;53.046;18.604;2023-02-15T00:35:45;103434.94;;;2.91;64.45
58739;BME280;44512;53.046;18.604;2023-02-15T00:46:14;103433.23;;;2.90;64.77
58739;BME280;44512;53.046;18.604;2023-02-15T00:56:42;103438.88;;;2.84;65.08
58739;BME280;44512;53.046;18.604;2023-02-15T01:07:11;103437.34;;;2.80;65.34
58739;BME280;44512;53.046;18.604;2023-02-15T01:17:39;103435.59;;;2.79;65.55
58739;BME280;44512;53.046;18.604;2023-02-15T01:28:08;103416.23;;;2.58;66.20
58739;BME280;44512;53.046;18.604;2023-02-15T01:38:36;103407.05;;;2.46;66.76
58739;BME280;44512;53.046;18.604;2023-02-15T01:49:11;103396.97;;;2.51;67.02
58739;BME280;44512;53.046;18.604;2023-02-15T01:59:35;103383.27;;;2.57;66.91
58739;BME280;44512;53.046;18.604;2023-02-15T02:10:03;103378.73;;;2.59;67.06
58739;BME280;44512;53.046;18.604;2023-02-15T02:41:36;103363.11;;;2.68;67.89
58739;BME280;44512;53.046;18.604;2023-02-15T02:52:01;103363.30;;;2.65;68.26
58739;BME280;44512;53.046;18.604;2023-02-15T03:02:29;103370.52;;;2.63;68.57
58739;BME280;44512;53.046;18.604;2023-02-15T03:12:53;103363.30;;;2.65;68.63
58739;BME280;44512;53.046;18.604;2023-02-15T03:23:23;103365.97;;;2.65;68.79
58739;BME280;44512;53.046;18.604;2023-02-15T03:33:55;103356.38;;;2.60;69.03
58739;BME280;44512;53.046;18.604;2023-02-15T03:44:28;103359.81;;;2.63;69.23
58739;BME280;44512;53.046;18.604;2023-02-15T03:54:47;103349.22;;;2.61;69.53
58739;BME280;44512;53.046;18.604;2023-02-15T04:05:15;103346.79;;;2.56;69.71
58739;BME280;44512;53.046;18.604;2023-02-15T04:15:43;103338.17;;;2.51;70.03
58739;BME280;44512;53.046;18.604;2023-02-15T04:26:12;103339.58;;;2.58;69.76
58739;BME280;44512;53.046;18.604;2023-02-15T04:36:41;103341.10;;;2.63;69.59
58739;BME280;44512;53.046;18.604;2023-02-15T04:47:09;103342.92;;;2.62;69.55
58739;BME280;44512;53.046;18.604;2023-02-15T04:57:37;103332.33;;;2.60;69.77
58739;BME280;44512;53.046;18.604;2023-02-15T05:08:06;103330.60;;;2.59;69.67
58739;BME280;44512;53.046;18.604;2023-02-15T05:18:34;103324.45;;;2.57;69.59
58739;BME280;44512;53.046;18.604;2023-02-15T05:29:03;103322.73;;;2.56;69.53
58739;BME280;44512;53.046;18.604;2023-02-15T05:39:31;103320.92;;;2.57;69.49
58739;BME280;44512;53.046;18.604;2023-02-15T05:49:59;103317.28;;;2.58;69.55
58739;BME280;44512;53.046;18.604;2023-02-15T06:00:28;103320.66;;;2.61;69.60
58739;BME280;44512;53.046;18.604;2023-02-15T06:10:57;103329.38;;;2.65;69.68
58739;BME280;44512;53.046;18.604;2023-02-15T06:21:25;103344.14;;;2.72;69.59
58739;BME280;44512;53.046;18.604;2023-02-15T06:31:54;103334.90;;;2.78;69.66
58739;BME280;44512;53.046;18.604;2023-02-15T06:42:24;103327.73;;;2.78;69.76
58739;BME280;44512;53.046;18.604;2023-02-15T06:52:56;103331.87;;;2.84;69.81
58739;BME280;44512;53.046;18.604;2023-02-15T07:03:19;103327.08;;;2.91;69.91
58739;BME280;44512;53.046;18.604;2023-02-15T07:13:48;103320.49;;;2.96;69.99
58739;BME280;44512;53.046;18.604;2023-02-15T07:24:16;103319.38;;;3.00;70.03
58739;BME280;44512;53.046;18.604;2023-02-15T07:34:45;103312.98;;;3.03;70.12
58739;BME280;44512;53.046;18.604;2023-02-15T07:45:14;103302.97;;;3.06;70.15
58739;BME280;44512;53.046;18.604;2023-02-15T07:55:42;103286.72;;;3.09;70.42
58739;BME280;44512;53.046;18.604;2023-02-15T08:06:11;103274.72;;;3.17;70.58
58739;BME280;44512;53.046;18.604;2023-02-15T08:27:10;103256.90;;;3.31;70.96
58739;BME280;44512;53.046;18.604;2023-02-15T08:37:36;103251.82;;;3.41;71.23
58739;BME280;44512;53.046;18.604;2023-02-15T08:48:05;103244.03;;;3.52;71.40
58739;BME280;44512;53.046;18.604;2023-02-15T08:58:34;103223.77;;;3.62;71.45
58739;BME280;44512;53.046;18.604;2023-02-15T09:09:02;103229.60;;;3.69;71.54
58739;BME280;44512;53.046;18.604;2023-02-15T09:19:30;103222.90;;;3.76;71.51
58739;BME280;44512;53.046;18.604;2023-02-15T09:35:00;103219.77;;;3.84;71.17
58739;BME280;44512;53.046;18.604;2023-02-15T10:06:35;103189.97;;;4.03;70.09
58739;BME280;44512;53.046;18.604;2023-02-15T10:27:22;103170.46;;;4.01;68.88
58739;BME280;44512;53.046;18.604;2023-02-15T10:38:05;103160.98;;;4.09;69.07
58739;BME280;44512;53.046;18.604;2023-02-15T11:09:18;103132.63;;;4.20;68.42
58739;BME280;44512;53.046;18.604;2023-02-15T11:30:17;103116.14;;;4.26;68.08
58739;BME280;44512;53.046;18.604;2023-02-15T11:40:51;103098.96;;;4.28;68.20
58739;BME280;44512;53.046;18.604;2023-02-15T11:51:16;103089.45;;;4.37;68.06
58739;BME280;44512;53.046;18.604;2023-02-15T12:01:44;103077.56;;;4.41;67.78
58739;BME280;44512;53.046;18.604;2023-02-15T12:22:37;103057.21;;;4.51;67.91
58739;BME280;44512;53.046;18.604;2023-02-15T12:43:37;103043.73;;;4.65;67.62
58739;BME280;44512;53.046;18.604;2023-02-15T12:54:15;103011.96;;;4.72;67.52
58739;BME280;44512;53.046;18.604;2023-02-15T13:04:29;103011.33;;;4.81;67.38
58739;BME280;44512;53.046;18.604;2023-02-15T13:14:58;103004.67;;;4.87;67.20
58739;BME280;44512;53.046;18.604;2023-02-15T13:25:29;103007.68;;;4.82;66.83
58739;BME280;44512;53.046;18.604;2023-02-15T14:17:55;102950.65;;;5.04;66.84
58739;BME280;44512;53.046;18.604;2023-02-15T14:28:21;102946.46;;;5.13;66.86
58739;BME280;44512;53.046;18.604;2023-02-15T14:38:59;102938.07;;;5.17;66.54
58739;BME280;44512;53.046;18.604;2023-02-15T14:49:20;102932.91;;;5.14;66.49
58739;BME280;44512;53.046;18.604;2023-02-15T14:59:53;102925.60;;;5.16;66.40
58739;BME280;44512;53.046;18.604;2023-02-15T15:20:48;102916.99;;;5.24;66.15
58739;BME280;44512;53.046;18.604;2023-02-15T15:41:43;102885.84;;;5.21;66.13
58739;BME280;44512;53.046;18.604;2023-02-15T15:52:19;102874.89;;;5.25;66.17
58739;BME280;44512;53.046;18.604;2023-02-15T16:02:32;102878.30;;;5.27;66.14
58739;BME280;44512;53.046;18.604;2023-02-15T16:13:01;102869.81;;;5.33;65.98
58739;BME280;44512;53.046;18.604;2023-02-15T16:33:57;102842.84;;;5.34;65.71
58739;BME280;44512;53.046;18.604;2023-02-15T16:44:26;102833.18;;;5.32;65.77
58739;BME280;44512;53.046;18.604;2023-02-15T16:54:59;102808.05;;;5.33;65.80
58739;BME280;44512;53.046;18.604;2023-02-15T17:05:23;102823.41;;;5.31;65.89
58739;BME280;44512;53.046;18.604;2023-02-15T17:26:25;102797.33;;;5.33;65.92
58739;BME280;44512;53.046;18.604;2023-02-15T17:36:57;102788.30;;;5.34;65.89
58739;BME280;44512;53.046;18.604;2023-02-15T17:47:20;102796.55;;;5.31;65.85
58739;BME280;44512;53.046;18.604;2023-02-15T17:57:45;102783.47;;;5.26;65.80
58739;BME280;44512;53.046;18.604;2023-02-15T18:08:15;102789.70;;;5.27;65.72
58739;BME280;44512;53.046;18.604;2023-02-15T18:18:43;102786.16;;;5.26;65.80
58739;BME280;44512;53.046;18.604;2023-02-15T18:29:11;102779.59;;;5.30;65.69
58739;BME280;44512;53.046;18.604;2023-02-15T18:39:46;102783.38;;;5.28;65.59
58739;BME280;44512;53.046;18.604;2023-02-15T18:50:08;102774.45;;;5.27;65.64
58739;BME280;44512;53.046;18.604;2023-02-15T19:00:36;102777.76;;;5.31;65.47
58739;BME280;44512;53.046;18.604;2023-02-15T19:11:05;102769.48;;;5.34;65.36
58739;BME280;44512;53.046;18.604;2023-02-15T19:21:33;102755.04;;;5.23;65.23
58739;BME280;44512;53.046;18.604;2023-02-15T19:32:01;102753.93;;;5.26;65.32
58739;BME280;44512;53.046;18.604;2023-02-15T19:42:30;102737.22;;;5.22;65.23
58739;BME280;44512;53.046;18.604;2023-02-15T19:52:58;102726.71;;;5.19;65.11
58739;BME280;44512;53.046;18.604;2023-02-15T20:03:27;102714.61;;;5.14;64.98
58739;BME280;44512;53.046;18.604;2023-02-15T20:13:55;102688.33;;;5.06;64.98
58739;BME280;44512;53.046;18.604;2023-02-15T20:24:26;102671.68;;;4.90;65.10
58739;BME280;44512;53.046;18.604;2023-02-15T20:34:52;102654.23;;;4.84;65.15
58739;BME280;44512;53.046;18.604;2023-02-15T20:45:27;102655.03;;;4.74;65.39
58739;BME280;44512;53.046;18.604;2023-02-15T20:55:49;102651.62;;;4.72;65.43
58739;BME280;44512;53.046;18.604;2023-02-15T21:06:18;102645.62;;;4.68;65.51
58739;BME280;44512;53.046;18.604;2023-02-15T21:16:47;102662.82;;;4.65;65.50
58739;BME280;44512;53.046;18.604;2023-02-15T21:27:15;102636.20;;;4.62;65.31
58739;BME280;44512;53.046;18.604;2023-02-15T21:37:45;102618.75;;;4.57;65.24
58739;BME280;44512;53.046;18.604;2023-02-15T21:48:12;102612.02;;;4.51;65.26
58739;BME280;44512;53.046;18.604;2023-02-15T21:58:40;102602.83;;;4.42;65.27
58739;BME280;44512;53.046;18.604;2023-02-15T22:09:15;102591.73;;;4.36;65.26
58739;BME280;44512;53.046;18.604;2023-02-15T22:19:37;102582.31;;;4.30;65.18
58739;BME280;44512;53.046;18.604;2023-02-15T22:40:34;102567.37;;;4.15;65.22
58739;BME280;44512;53.046;18.604;2023-02-15T22:51:03;102571.70;;;4.05;65.46
58739;BME280;44512;53.046;18.604;2023-02-15T23:01:35;102552.09;;;4.04;65.39
58739;BME280;44512;53.046;18.604;2023-02-15T23:12:00;102539.15;;;3.98;65.33
58739;BME280;44512;53.046;18.604;2023-02-15T23:22:28;102528.86;;;3.92;65.37
58739;BME280;44512;53.046;18.604;2023-02-15T23:32:57;102540.66;;;3.89;65.22
58739;BME280;44512;53.046;18.604;2023-02-15T23:43:25;102523.95;;;3.86;65.14
58739;BME280;44512;53.046;18.604;2023-02-15T23:53:54;102521.61;;;3.81;65.10
